createdAt,value
2019-03-13T00:02:04.705Z,6.93
2019-03-13T00:04:33.889Z,2.63
2019-03-13T00:07:02.793Z,2.93
2019-03-13T00:09:31.705Z,2.23
2019-03-13T00:12:00.675Z,1.67
2019-03-13T00:14:29.657Z,1.27
2019-03-13T00:16:58.853Z,1.43
2019-03-13T00:19:27.693Z,1.10
2019-03-13T00:21:56.592Z,1.70
2019-03-13T00:24:25.434Z,2.30
2019-03-13T00:26:54.412Z,1.00
2019-03-13T00:29:23.307Z,0.93
2019-03-13T00:31:52.399Z,1.10
2019-03-13T00:34:21.223Z,0.93
2019-03-13T00:36:50.074Z,0.83
2019-03-13T00:39:18.989Z,0.80
2019-03-13T00:41:47.916Z,0.90
2019-03-13T00:44:16.845Z,0.90
2019-03-13T00:46:45.930Z,1.10
2019-03-13T00:49:14.828Z,0.93
2019-03-13T00:51:43.926Z,1.53
2019-03-13T00:54:12.897Z,1.00
2019-03-13T00:56:42.497Z,1.60
2019-03-13T00:59:11.419Z,1.17
2019-03-13T01:01:49.969Z,1.00
2019-03-13T01:04:35.073Z,0.90
2019-03-13T01:07:06.734Z,1.07
2019-03-13T01:09:35.644Z,0.70
2019-03-13T01:12:05.021Z,1.40
2019-03-13T01:14:34.005Z,1.07
2019-03-13T01:17:03.053Z,0.90
2019-03-13T01:19:31.907Z,0.80
2019-03-13T01:22:00.749Z,0.90
2019-03-13T01:24:29.645Z,0.83
2019-03-13T01:26:58.622Z,0.77
2019-03-13T01:29:27.513Z,0.70
2019-03-13T01:32:22.065Z,0.80
2019-03-13T01:35:07.819Z,1.10
2019-03-13T01:37:36.687Z,1.10
2019-03-13T01:40:06.645Z,1.17
2019-03-13T01:42:35.840Z,0.80
2019-03-13T01:45:05.626Z,0.97
2019-03-13T01:47:34.605Z,1.10
2019-03-13T01:50:03.498Z,0.73
2019-03-13T01:52:32.758Z,0.90
2019-03-13T01:55:01.589Z,1.30
2019-03-13T01:57:30.430Z,1.00
2019-03-13T01:59:59.324Z,1.10
2019-03-13T02:02:28.322Z,0.90
2019-03-13T02:04:57.309Z,1.03
2019-03-13T02:07:26.566Z,0.90
2019-03-13T02:09:55.466Z,0.60
2019-03-13T02:12:24.381Z,1.03
2019-03-13T02:14:53.871Z,1.17
2019-03-13T02:17:22.781Z,1.00
2019-03-13T02:19:51.696Z,0.90
2019-03-13T02:22:20.694Z,0.90
2019-03-13T02:24:49.588Z,1.00
2019-03-13T02:27:18.438Z,1.50
2019-03-13T02:29:47.270Z,1.00
2019-03-13T02:32:16.179Z,0.60
2019-03-13T02:34:45.088Z,1.50
2019-03-13T02:37:13.922Z,1.00
2019-03-13T02:39:42.858Z,0.90
2019-03-13T02:42:12.289Z,0.80
2019-03-13T02:44:41.378Z,0.80
2019-03-13T02:47:10.304Z,0.77
2019-03-13T02:49:39.229Z,1.00
2019-03-13T02:52:08.105Z,0.70
2019-03-13T02:54:37.088Z,1.17
2019-03-13T02:57:06.075Z,0.60
2019-03-13T02:59:34.895Z,0.87
2019-03-13T03:02:26.055Z,0.90
2019-03-13T03:04:56.255Z,1.13
2019-03-13T03:07:25.173Z,1.23
2019-03-13T03:09:53.996Z,0.53
2019-03-13T03:12:22.831Z,0.50
2019-03-13T03:15:02.603Z,0.50
2019-03-13T03:17:31.519Z,0.37
2019-03-13T03:20:00.622Z,0.60
2019-03-13T03:22:29.588Z,0.30
2019-03-13T03:24:58.734Z,0.80
2019-03-13T03:27:27.998Z,0.30
2019-03-13T03:29:56.831Z,0.80
2019-03-13T03:32:25.735Z,0.30
2019-03-13T03:34:54.574Z,0.40
2019-03-13T03:37:23.582Z,0.30
2019-03-13T03:39:52.511Z,0.30
2019-03-13T03:42:21.515Z,0.30
2019-03-13T03:44:50.502Z,0.30
2019-03-13T03:47:19.753Z,0.53
2019-03-13T03:49:48.739Z,0.60
2019-03-13T03:52:17.653Z,0.20
2019-03-13T03:54:46.469Z,0.30
2019-03-13T03:57:15.690Z,0.10
2019-03-13T03:59:44.522Z,0.33
2019-03-13T04:02:14.088Z,0.50
2019-03-13T04:04:42.978Z,0.20
2019-03-13T04:07:12.199Z,0.30
2019-03-13T04:09:41.043Z,0.17
2019-03-13T04:12:10.000Z,0.20
2019-03-13T04:14:38.908Z,0.30
2019-03-13T04:17:08.063Z,0.20
2019-03-13T04:19:36.900Z,0.10
2019-03-13T04:22:05.806Z,0.23
2019-03-13T04:24:34.645Z,0.20
2019-03-13T04:27:03.466Z,0.20
2019-03-13T04:29:32.692Z,0.20
2019-03-13T04:32:01.590Z,0.20
2019-03-13T04:34:30.427Z,0.13
2019-03-13T04:36:59.596Z,0.10
2019-03-13T04:39:28.430Z,0.27
2019-03-13T04:41:57.395Z,0.10
2019-03-13T04:44:26.238Z,0.10
2019-03-13T04:46:55.244Z,0.20
2019-03-13T04:49:24.103Z,0.20
2019-03-13T04:51:52.963Z,0.30
2019-03-13T04:54:21.817Z,0.27
2019-03-13T04:56:50.659Z,0.20
2019-03-13T04:59:19.490Z,0.10
2019-03-13T05:01:48.308Z,0.40
2019-03-13T05:04:17.193Z,0.30
2019-03-13T05:06:46.014Z,0.30
2019-03-13T05:09:17.586Z,0.57
2019-03-13T05:11:46.405Z,0.50
2019-03-13T05:14:15.385Z,0.27
2019-03-13T05:16:44.286Z,0.20
2019-03-13T05:19:13.390Z,0.37
2019-03-13T05:21:42.209Z,0.30
2019-03-13T05:24:11.128Z,0.20
2019-03-13T05:26:39.950Z,0.23
2019-03-13T05:29:08.957Z,0.37
2019-03-13T05:31:37.854Z,0.20
2019-03-13T05:34:06.766Z,0.20
2019-03-13T05:36:35.598Z,0.20
2019-03-13T05:39:06.603Z,0.30
2019-03-13T05:41:35.933Z,0.40
2019-03-13T05:44:05.030Z,0.30
2019-03-13T05:46:33.950Z,0.27
2019-03-13T05:49:02.787Z,5.67
2019-03-13T05:51:31.705Z,0.93
2019-03-13T05:54:00.584Z,0.90
2019-03-13T05:56:29.420Z,1.93
2019-03-13T05:59:01.129Z,2.33
2019-03-13T06:01:29.949Z,1.50
2019-03-13T06:03:58.789Z,1.23
2019-03-13T06:06:27.761Z,2.37
2019-03-13T06:08:56.669Z,0.70
2019-03-13T06:11:25.519Z,0.60
2019-03-13T06:13:54.342Z,0.73
2019-03-13T06:16:23.246Z,1.00
2019-03-13T06:18:53.094Z,0.77
2019-03-13T06:21:22.216Z,0.90
2019-03-13T06:23:51.117Z,2.17
2019-03-13T06:26:39.250Z,0.93
2019-03-13T06:29:08.086Z,1.70
2019-03-13T06:31:36.930Z,2.17
2019-03-13T06:34:05.766Z,2.33
2019-03-13T06:36:34.591Z,1.47
2019-03-13T06:39:05.078Z,0.90
2019-03-13T06:41:33.915Z,0.80
2019-03-13T06:44:02.920Z,0.63
2019-03-13T06:46:31.826Z,0.90
2019-03-13T06:49:00.726Z,1.43
2019-03-13T06:51:29.638Z,1.80
2019-03-13T06:53:58.466Z,1.93
2019-03-13T06:56:27.379Z,3.50
2019-03-13T06:59:13.565Z,2.23
2019-03-13T07:01:48.406Z,2.40
2019-03-13T07:04:30.335Z,1.10
2019-03-13T07:07:30.413Z,3.67
2019-03-13T07:10:04.354Z,0.90
2019-03-13T07:13:09.008Z,0.70
2019-03-13T07:15:57.026Z,2.50
2019-03-13T07:19:10.094Z,1.00
2019-03-13T07:21:58.094Z,1.70
2019-03-13T07:24:34.747Z,4.57
2019-03-13T07:27:25.997Z,5.10
2019-03-13T07:30:45.522Z,3.90
2019-03-13T07:33:42.364Z,1.40
2019-03-13T07:36:34.263Z,1.60
2019-03-13T07:39:25.281Z,1.30
2019-03-13T07:42:05.950Z,1.03
2019-03-13T07:44:52.855Z,0.70
2019-03-13T07:47:41.770Z,0.53
2019-03-13T07:50:29.485Z,0.50
2019-03-13T07:53:23.278Z,0.43
2019-03-13T07:56:07.834Z,0.57
2019-03-13T07:58:55.738Z,0.40
2019-03-13T08:02:15.055Z,0.50
2019-03-13T08:05:08.751Z,0.50
2019-03-13T08:08:18.955Z,0.40
2019-03-13T08:10:55.001Z,0.40
2019-03-13T08:13:31.383Z,0.57
2019-03-13T08:16:17.462Z,0.53
2019-03-13T08:22:12.961Z,0.47
2019-03-13T08:24:50.586Z,0.50
2019-03-13T08:27:38.516Z,0.40
2019-03-13T08:30:33.691Z,0.30
2019-03-13T08:33:16.700Z,0.40
2019-03-13T08:38:57.863Z,0.50
2019-03-13T08:41:51.930Z,0.40
2019-03-13T08:44:27.386Z,0.47
2019-03-13T08:47:05.473Z,0.63
2019-03-13T08:50:02.789Z,0.40
2019-03-13T08:52:42.380Z,0.60
2019-03-13T08:55:28.438Z,0.40
2019-03-13T08:58:35.254Z,0.20
2019-03-13T09:01:23.233Z,0.40
2019-03-13T09:04:18.739Z,0.43
2019-03-13T09:06:55.899Z,0.40
2019-03-13T09:10:18.428Z,0.40
2019-03-13T09:12:54.388Z,0.40
2019-03-13T09:16:01.579Z,0.47
2019-03-13T09:18:58.684Z,0.30
2019-03-13T09:21:34.067Z,0.50
2019-03-13T09:24:28.106Z,0.57
2019-03-13T09:27:13.814Z,0.47
2019-03-13T09:30:01.802Z,0.33
2019-03-13T09:32:48.533Z,0.27
2019-03-13T09:35:39.692Z,0.40
2019-03-13T09:38:38.357Z,0.40
2019-03-13T09:41:29.662Z,0.20
2019-03-13T09:44:14.960Z,0.40
2019-03-13T09:47:08.816Z,0.40
2019-03-13T09:49:56.721Z,0.40
2019-03-13T09:52:43.538Z,0.70
2019-03-13T09:55:27.834Z,0.20
2019-03-13T09:58:05.628Z,0.87
2019-03-13T10:00:58.999Z,0.30
2019-03-13T10:03:45.715Z,0.30
2019-03-13T10:06:28.910Z,0.40
2019-03-13T10:09:15.700Z,0.40
2019-03-13T10:11:49.933Z,0.30
2019-03-13T10:14:27.127Z,0.37
2019-03-13T10:17:34.234Z,0.33
2019-03-13T10:20:32.692Z,0.30
2019-03-13T10:23:13.768Z,0.30
2019-03-13T10:26:09.909Z,0.40
2019-03-13T10:28:57.132Z,0.20
2019-03-13T10:31:42.108Z,0.40
2019-03-13T10:34:30.159Z,0.40
2019-03-13T10:37:24.147Z,0.37
2019-03-13T10:40:12.141Z,0.40
2019-03-13T10:42:47.876Z,0.40
2019-03-13T10:45:26.101Z,0.43
2019-03-13T10:48:11.462Z,0.50
2019-03-13T10:51:17.154Z,0.50
2019-03-13T10:54:05.033Z,0.33
2019-03-13T10:56:51.714Z,0.50
2019-03-13T10:59:43.383Z,0.30
2019-03-13T11:02:31.453Z,0.27
2019-03-13T11:05:38.841Z,0.30
2019-03-13T11:08:17.495Z,0.30
2019-03-13T11:11:05.660Z,0.30
2019-03-13T11:13:56.708Z,0.33
2019-03-13T11:17:13.205Z,0.40
2019-03-13T11:20:01.135Z,0.33
2019-03-13T11:22:44.948Z,0.33
2019-03-13T11:25:29.626Z,0.50
2019-03-13T11:28:06.188Z,0.60
2019-03-13T11:30:53.031Z,0.40
2019-03-13T11:33:29.641Z,0.30
2019-03-13T11:36:12.560Z,0.40
2019-03-13T11:38:59.498Z,0.83
2019-03-13T11:41:56.894Z,0.83
2019-03-13T11:44:48.005Z,0.67
2019-03-13T11:47:42.928Z,0.60
2019-03-13T11:50:26.394Z,0.50
2019-03-13T11:53:20.260Z,0.40
2019-03-13T11:56:08.228Z,0.60
2019-03-13T11:58:55.098Z,0.47
2019-03-13T12:01:45.902Z,0.57
2019-03-13T12:04:44.006Z,0.60
2019-03-13T12:07:30.654Z,0.70
2019-03-13T12:10:37.918Z,0.43
2019-03-13T12:13:26.366Z,0.50
2019-03-13T12:16:07.107Z,0.90
2019-03-13T12:19:01.206Z,0.80
2019-03-13T12:21:46.879Z,0.60
2019-03-13T12:24:34.922Z,0.60
2019-03-13T12:27:49.791Z,0.60
2019-03-13T12:31:02.764Z,0.50
2019-03-13T12:33:39.678Z,0.50
2019-03-13T12:36:27.646Z,0.60
2019-03-13T12:39:18.010Z,0.50
2019-03-13T12:42:18.987Z,0.90
2019-03-13T12:45:22.137Z,0.70
2019-03-13T12:48:15.823Z,0.67
2019-03-13T12:54:08.495Z,1.07
2019-03-13T12:56:54.658Z,0.77
2019-03-13T12:59:38.816Z,0.50
2019-03-13T13:02:36.381Z,0.70
2019-03-13T13:05:24.721Z,0.47
2019-03-13T13:08:12.710Z,0.50
2019-03-13T13:10:59.223Z,0.43
2019-03-13T13:13:50.227Z,0.30
2019-03-13T13:16:33.489Z,0.40
2019-03-13T13:19:02.417Z,0.53
2019-03-13T13:21:33.505Z,0.60
2019-03-13T13:24:02.412Z,0.50
2019-03-13T13:26:50.548Z,0.40
2019-03-13T13:29:19.503Z,0.60
2019-03-13T13:31:48.338Z,0.67
2019-03-13T13:34:17.196Z,0.70
2019-03-13T13:36:46.112Z,0.60
2019-03-13T13:39:34.215Z,0.47
2019-03-13T13:42:03.191Z,0.80
2019-03-13T13:44:32.044Z,0.40
2019-03-13T13:47:20.070Z,0.60
2019-03-13T13:50:08.202Z,0.60
2019-03-13T13:52:37.138Z,0.70
2019-03-13T13:55:25.262Z,0.70
2019-03-13T13:57:54.250Z,0.73
2019-03-13T14:00:23.297Z,0.70
2019-03-13T14:02:52.134Z,0.50
2019-03-13T14:05:41.072Z,0.50
2019-03-13T14:08:10.036Z,0.77
2019-03-13T14:10:39.030Z,0.80
2019-03-13T14:13:07.936Z,1.07
2019-03-13T14:15:56.057Z,0.87
2019-03-13T14:18:24.994Z,0.90
2019-03-13T14:21:13.082Z,1.00
2019-03-13T14:23:41.921Z,0.70
2019-03-13T14:26:10.759Z,0.60
2019-03-13T14:28:39.596Z,0.70
2019-03-13T14:31:27.647Z,0.97
2019-03-13T14:33:56.485Z,0.63
2019-03-13T14:36:25.472Z,1.27
2019-03-13T14:38:54.458Z,0.63
2019-03-13T14:41:42.620Z,0.63
2019-03-13T14:44:11.616Z,0.60
2019-03-13T14:46:40.636Z,0.70
2019-03-13T14:49:09.544Z,0.93
2019-03-13T14:51:57.592Z,0.87
2019-03-13T14:54:45.618Z,0.87
2019-03-13T14:57:33.743Z,0.70
2019-03-13T15:00:21.897Z,1.03
2019-03-13T15:03:09.854Z,0.80
2019-03-13T15:05:38.974Z,1.13
2019-03-13T15:08:07.901Z,0.87
2019-03-13T15:10:36.921Z,1.00
2019-03-13T15:13:05.830Z,1.10
2019-03-13T15:15:34.817Z,0.80
2019-03-13T15:18:03.714Z,0.80
2019-03-13T15:20:32.710Z,0.90
2019-03-13T15:23:01.549Z,0.90
2019-03-13T15:25:49.586Z,0.80
2019-03-13T15:28:18.419Z,1.43
2019-03-13T15:30:47.251Z,0.77
2019-03-13T15:33:16.150Z,0.90
2019-03-13T15:35:45.002Z,0.50
2019-03-13T15:38:33.031Z,0.80
2019-03-13T15:41:21.087Z,0.90
2019-03-13T15:43:50.067Z,0.43
2019-03-13T15:46:18.971Z,0.50
2019-03-13T15:48:47.876Z,0.50
2019-03-13T15:51:16.730Z,0.80
2019-03-13T15:53:45.646Z,0.60
2019-03-13T15:56:14.485Z,0.60
2019-03-13T15:58:43.391Z,0.50
2019-03-13T16:01:12.369Z,0.50
2019-03-13T16:06:30.491Z,0.47
2019-03-13T16:08:59.313Z,1.17
2019-03-13T16:11:28.226Z,0.80
2019-03-13T16:13:57.062Z,0.80
2019-03-13T16:16:25.905Z,0.50
2019-03-13T16:18:54.726Z,0.80
2019-03-13T16:21:30.779Z,0.73
2019-03-13T16:23:59.610Z,0.87
2019-03-13T16:26:47.717Z,0.80
2019-03-13T16:29:34.251Z,0.90
2019-03-13T16:32:03.450Z,0.90
2019-03-13T16:34:32.278Z,1.07
2019-03-13T16:37:20.369Z,0.67
2019-03-13T16:40:09.110Z,1.23
2019-03-13T16:42:38.098Z,1.40
2019-03-13T16:45:08.251Z,0.93
2019-03-13T16:47:37.157Z,0.53
2019-03-13T16:50:07.454Z,0.60
2019-03-13T16:52:39.103Z,1.53
2019-03-13T16:55:29.007Z,1.10
2019-03-13T16:57:57.920Z,0.97
2019-03-13T17:00:27.194Z,0.80
2019-03-13T17:02:56.191Z,0.80
2019-03-13T17:05:25.475Z,0.77
2019-03-13T17:07:54.458Z,0.67
2019-03-13T17:10:23.551Z,0.40
2019-03-13T17:12:52.530Z,1.53
2019-03-13T17:15:21.510Z,1.30
2019-03-13T17:18:09.807Z,0.73
2019-03-13T17:20:38.726Z,1.20
2019-03-13T17:23:07.715Z,1.33
2019-03-13T17:28:23.394Z,0.70
2019-03-13T17:30:53.759Z,1.00
2019-03-13T17:33:41.803Z,1.37
2019-03-13T17:36:10.702Z,1.20
2019-03-13T17:38:39.547Z,1.37
2019-03-13T17:41:08.448Z,0.77
2019-03-13T17:43:39.587Z,1.07
2019-03-13T17:46:07.927Z,0.90
2019-03-13T17:48:36.907Z,0.90
2019-03-13T17:51:24.933Z,1.00
2019-03-13T17:53:53.773Z,1.50
2019-03-13T17:56:22.634Z,0.93
2019-03-13T17:58:51.513Z,0.93
2019-03-13T18:01:20.415Z,1.70
2019-03-13T18:03:50.031Z,3.73
2019-03-13T18:06:55.948Z,1.10
2019-03-13T18:09:24.850Z,1.57
2019-03-13T18:11:53.679Z,1.23
2019-03-13T18:14:22.543Z,1.20
2019-03-13T18:16:51.439Z,1.30
2019-03-13T18:19:20.426Z,1.00
2019-03-13T18:22:00.818Z,1.03
2019-03-13T18:24:41.515Z,0.90
2019-03-13T18:27:10.427Z,1.47
2019-03-13T18:29:39.339Z,1.50
2019-03-13T18:32:08.231Z,2.30
2019-03-13T18:34:37.071Z,1.30
2019-03-13T18:37:06.042Z,2.77
2019-03-13T18:39:34.884Z,1.93
2019-03-13T18:42:03.909Z,4.00
2019-03-13T18:44:32.882Z,1.97
2019-03-13T18:47:01.828Z,3.33
2019-03-13T18:49:30.920Z,3.10
2019-03-13T18:51:59.823Z,3.67
2019-03-13T18:54:28.748Z,2.33
2019-03-13T18:59:47.988Z,1.30
2019-03-13T19:02:16.970Z,2.63
2019-03-13T19:04:45.892Z,1.50
2019-03-13T19:07:14.785Z,2.00
2019-03-13T19:09:43.711Z,1.20
2019-03-13T19:12:12.604Z,1.40
2019-03-13T19:15:00.714Z,1.20
2019-03-13T19:17:29.548Z,1.23
2019-03-13T19:19:58.467Z,1.73
2019-03-13T19:22:27.305Z,1.23
2019-03-13T19:24:56.142Z,1.90
2019-03-13T19:27:25.993Z,1.50
2019-03-13T19:29:55.107Z,1.10
2019-03-13T19:32:24.003Z,1.17
2019-03-13T19:34:52.914Z,1.10
2019-03-13T19:37:41.024Z,1.67
2019-03-13T19:40:10.798Z,0.83
2019-03-13T19:42:39.703Z,1.20
2019-03-13T19:45:11.439Z,1.03
2019-03-13T19:47:40.414Z,1.63
2019-03-13T19:50:09.929Z,1.43
2019-03-13T19:52:58.032Z,1.27
2019-03-13T19:55:33.442Z,0.83
2019-03-13T19:58:02.330Z,1.00
2019-03-13T20:00:44.642Z,1.00
2019-03-13T20:03:13.656Z,1.10
2019-03-13T20:06:01.685Z,1.03
2019-03-13T20:08:30.771Z,2.07
2019-03-13T20:10:59.801Z,2.23
2019-03-13T20:13:28.885Z,2.40
2019-03-13T20:15:58.221Z,1.27
2019-03-13T20:18:27.157Z,1.00
2019-03-13T20:20:56.162Z,2.33
2019-03-13T20:23:25.215Z,1.37
2019-03-13T20:25:54.469Z,1.13
2019-03-13T20:28:23.614Z,0.90
2019-03-13T20:30:52.606Z,1.40
2019-03-13T20:33:21.614Z,1.07
2019-03-13T20:35:50.450Z,1.07
2019-03-13T20:38:19.426Z,1.23
2019-03-13T20:40:48.453Z,1.20
2019-03-13T20:43:17.421Z,1.10
2019-03-13T20:46:06.066Z,0.70
2019-03-13T20:48:35.282Z,1.07
2019-03-13T20:51:04.279Z,0.80
2019-03-13T20:53:33.178Z,1.13
2019-03-13T20:56:02.098Z,1.33
2019-03-13T20:58:30.931Z,1.47
2019-03-13T21:00:59.930Z,1.53
2019-03-13T21:03:28.811Z,1.10
2019-03-13T21:06:00.544Z,0.87
2019-03-13T21:08:47.745Z,0.93
2019-03-13T21:11:35.938Z,1.13
2019-03-13T21:14:05.013Z,1.10
2019-03-13T21:16:34.337Z,1.00
2019-03-13T21:19:22.447Z,0.90
2019-03-13T21:21:51.455Z,0.93
2019-03-13T21:24:39.582Z,1.20
2019-03-13T21:27:08.500Z,0.80
2019-03-13T21:29:56.601Z,1.03
2019-03-13T21:32:25.569Z,1.20
2019-03-13T21:34:54.659Z,1.00
2019-03-13T21:37:23.652Z,1.20
2019-03-13T21:40:12.092Z,0.90
2019-03-13T21:43:00.199Z,1.60
2019-03-13T21:45:40.664Z,1.30
2019-03-13T21:47:59.787Z,1.40
2019-03-13T21:50:28.800Z,1.33
2019-03-13T21:52:57.719Z,1.30
2019-03-13T21:55:27.527Z,1.20
2019-03-13T21:57:57.036Z,0.97
2019-03-13T22:00:26.150Z,1.70
2019-03-13T22:03:14.210Z,1.23
2019-03-13T22:05:43.246Z,1.37
2019-03-13T22:08:12.215Z,0.87
2019-03-13T22:10:41.151Z,0.80
2019-03-13T22:13:10.121Z,1.10
2019-03-13T22:15:39.089Z,1.50
2019-03-13T22:18:07.924Z,0.77
2019-03-13T22:20:36.759Z,0.80
2019-03-13T22:23:05.657Z,0.70
2019-03-13T22:25:34.581Z,1.00
2019-03-13T22:28:24.206Z,0.97
2019-03-13T22:30:53.119Z,0.60
2019-03-13T22:33:21.960Z,1.20
2019-03-13T22:35:50.899Z,1.00
2019-03-13T22:38:38.854Z,1.00
2019-03-13T22:41:27.117Z,0.63
2019-03-13T22:43:56.026Z,0.70
2019-03-13T22:46:45.731Z,0.73
2019-03-13T22:49:14.762Z,0.60
2019-03-13T22:51:43.692Z,0.70
2019-03-13T22:57:01.868Z,0.60
2019-03-13T22:59:31.027Z,0.80
2019-03-13T23:02:09.625Z,1.20
2019-03-13T23:04:57.851Z,1.07
2019-03-13T23:07:26.719Z,0.83
2019-03-13T23:09:55.671Z,0.80
2019-03-13T23:12:24.661Z,1.03
2019-03-13T23:17:43.671Z,1.40
2019-03-13T23:20:12.660Z,1.63
2019-03-13T23:22:41.505Z,1.37
2019-03-13T23:25:10.408Z,1.60
2019-03-13T23:27:39.261Z,1.60
2019-03-13T23:30:08.459Z,1.90
2019-03-13T23:32:37.316Z,1.13
2019-03-13T23:35:06.392Z,1.60
2019-03-13T23:37:37.298Z,1.07
2019-03-13T23:40:25.193Z,1.80
2019-03-13T23:42:54.036Z,1.27
2019-03-13T23:45:28.598Z,1.43
2019-03-13T23:47:57.586Z,0.90
2019-03-13T23:50:30.452Z,1.20
2019-03-13T23:52:59.412Z,0.73
2019-03-13T23:55:37.976Z,0.70
2019-03-13T23:58:07.243Z,0.63
